createdAt,value
2023-05-15T00:01:38.588Z,3.28
2023-05-15T00:04:05.169Z,3.50
2023-05-15T00:06:31.644Z,3.63
2023-05-15T00:08:58.216Z,3.30
2023-05-15T00:11:27.954Z,3.53
2023-05-15T00:13:54.727Z,3.20
2023-05-15T00:16:21.370Z,3.25
2023-05-15T00:18:47.942Z,3.58
2023-05-15T00:21:14.539Z,3.70
2023-05-15T00:23:41.026Z,2.92
2023-05-15T00:26:07.613Z,3.08
2023-05-15T00:28:34.142Z,2.90
2023-05-15T00:31:00.709Z,3.17
2023-05-15T00:33:27.282Z,2.88
2023-05-15T00:35:53.808Z,2.80
2023-05-15T00:38:20.311Z,3.00
2023-05-15T00:40:47.009Z,2.90
2023-05-15T00:43:14.340Z,3.10
2023-05-15T00:45:42.508Z,3.03
2023-05-15T00:48:12.318Z,3.92
2023-05-15T00:50:41.632Z,2.65
2023-05-15T00:53:08.280Z,2.65
2023-05-15T00:55:35.522Z,3.42
2023-05-15T00:58:02.556Z,3.08
2023-05-15T01:00:31.426Z,3.50
2023-05-15T01:02:58.079Z,3.67
2023-05-15T01:05:25.132Z,3.20
2023-05-15T01:08:10.313Z,3.03
2023-05-15T01:10:37.048Z,3.30
2023-05-15T01:13:04.949Z,3.15
2023-05-15T01:15:31.543Z,3.40
2023-05-15T01:17:58.100Z,3.85
2023-05-15T01:20:24.921Z,3.53
2023-05-15T01:23:00.776Z,4.30
2023-05-15T01:25:46.105Z,3.50
2023-05-15T01:28:13.774Z,3.97
2023-05-15T01:30:41.628Z,4.10
2023-05-15T01:33:19.961Z,3.45
2023-05-15T01:35:46.478Z,4.03
2023-05-15T01:38:35.913Z,3.28
2023-05-15T01:41:25.744Z,3.45
2023-05-15T01:43:56.504Z,3.83
2023-05-15T01:46:23.815Z,3.72
2023-05-15T01:48:51.145Z,4.07
2023-05-15T01:51:17.985Z,3.75
2023-05-15T01:53:44.578Z,4.10
2023-05-15T01:56:12.589Z,4.50
2023-05-15T01:58:39.965Z,4.47
2023-05-15T02:01:06.817Z,5.03
2023-05-15T02:03:36.940Z,5.22
2023-05-15T02:06:04.825Z,4.80
2023-05-15T02:08:32.007Z,4.88
2023-05-15T02:10:59.393Z,5.07
2023-05-15T02:13:26.636Z,5.45
2023-05-15T02:15:53.293Z,6.55
2023-05-15T02:18:19.877Z,6.65
2023-05-15T02:20:46.351Z,6.35
2023-05-15T02:23:12.807Z,6.07
2023-05-15T02:25:50.211Z,6.50
2023-05-15T02:28:24.361Z,7.53
2023-05-15T02:30:55.861Z,6.53
2023-05-15T02:35:50.076Z,5.60
2023-05-15T02:38:17.404Z,6.10
2023-05-15T02:40:44.671Z,6.38
2023-05-15T02:43:11.585Z,6.18
2023-05-15T02:45:38.420Z,6.85
2023-05-15T02:48:05.453Z,6.40
2023-05-15T02:50:32.250Z,6.45
2023-05-15T02:53:05.239Z,6.53
2023-05-15T02:55:31.722Z,6.05
2023-05-15T02:57:58.880Z,5.28
2023-05-15T03:00:25.656Z,5.95
2023-05-15T03:02:52.206Z,6.70
2023-05-15T03:05:18.840Z,5.85
2023-05-15T03:07:45.364Z,5.90
2023-05-15T03:10:11.878Z,6.03
2023-05-15T03:12:38.798Z,5.93
2023-05-15T03:15:06.215Z,5.97
2023-05-15T03:17:32.815Z,6.30
2023-05-15T03:19:59.311Z,6.32
2023-05-15T03:22:25.931Z,6.22
2023-05-15T03:24:52.465Z,6.60
2023-05-15T03:27:18.935Z,7.00
2023-05-15T03:29:45.500Z,6.68
2023-05-15T03:32:12.042Z,6.40
2023-05-15T03:34:40.890Z,6.40
2023-05-15T03:37:07.608Z,8.05
2023-05-15T03:39:34.084Z,7.22
2023-05-15T03:42:00.561Z,7.68
2023-05-15T03:44:27.068Z,7.47
2023-05-15T03:46:53.571Z,8.23
2023-05-15T03:49:20.142Z,7.75
2023-05-15T03:51:46.635Z,7.57
2023-05-15T03:54:13.144Z,7.45
2023-05-15T03:56:39.702Z,7.80
2023-05-15T03:59:06.188Z,8.40
2023-05-15T04:01:32.781Z,8.60
2023-05-15T04:03:59.289Z,8.70
2023-05-15T04:06:25.952Z,9.68
2023-05-15T04:08:52.396Z,8.25
2023-05-15T04:11:19.032Z,9.65
2023-05-15T04:13:45.556Z,9.20
2023-05-15T04:16:12.051Z,8.85
2023-05-15T04:18:38.697Z,7.65
2023-05-15T04:21:05.244Z,8.18
2023-05-15T04:23:31.776Z,9.05
2023-05-15T04:25:58.376Z,9.20
2023-05-15T04:28:25.005Z,9.73
2023-05-15T04:30:51.841Z,9.50
2023-05-15T04:33:18.321Z,9.88
2023-05-15T04:35:44.822Z,9.30
2023-05-15T04:38:11.321Z,10.25
2023-05-15T04:40:37.902Z,11.15
2023-05-15T04:43:04.438Z,11.18
2023-05-15T04:45:30.947Z,11.50
2023-05-15T04:47:57.532Z,13.60
2023-05-15T04:50:24.333Z,11.63
2023-05-15T04:52:51.200Z,11.50
2023-05-15T04:55:17.707Z,11.88
2023-05-15T04:57:46.494Z,12.70
2023-05-15T05:00:14.453Z,12.20
2023-05-15T05:02:41.705Z,12.15
2023-05-15T05:05:08.477Z,11.57
2023-05-15T05:07:35.174Z,13.15
2023-05-15T05:10:02.159Z,13.10
2023-05-15T05:12:28.658Z,12.88
2023-05-15T05:14:56.524Z,12.43
2023-05-15T05:17:23.120Z,12.10
2023-05-15T05:19:49.675Z,13.15
2023-05-15T05:22:16.167Z,12.43
2023-05-15T05:24:42.676Z,12.25
2023-05-15T05:27:09.150Z,11.80
2023-05-15T05:29:35.674Z,12.70
2023-05-15T05:32:02.254Z,11.18
2023-05-15T05:34:29.145Z,0.30
2023-05-15T05:36:55.687Z,0.73
2023-05-15T05:39:22.241Z,0.28
2023-05-15T05:41:48.737Z,0.40
2023-05-15T05:44:15.972Z,0.65
2023-05-15T05:46:45.692Z,0.30
2023-05-15T05:49:12.410Z,0.50
2023-05-15T05:51:39.288Z,1.10
2023-05-15T05:54:05.882Z,0.60
2023-05-15T05:56:32.450Z,0.93
2023-05-15T05:59:01.995Z,1.48
2023-05-15T06:01:28.745Z,0.30
2023-05-15T06:03:56.301Z,0.65
2023-05-15T06:06:23.079Z,0.38
2023-05-15T06:08:49.554Z,0.35
2023-05-15T06:11:16.279Z,0.85
2023-05-15T06:13:43.595Z,0.35
2023-05-15T06:16:10.198Z,0.73
2023-05-15T06:18:37.014Z,0.40
2023-05-15T06:21:03.600Z,1.67
2023-05-15T06:23:30.088Z,0.50
2023-05-15T06:25:56.849Z,0.40
2023-05-15T06:28:23.394Z,0.50
2023-05-15T06:30:49.855Z,0.45
2023-05-15T06:33:16.401Z,0.63
2023-05-15T06:35:42.904Z,1.30
2023-05-15T06:38:09.441Z,0.95
2023-05-15T06:40:35.989Z,0.30
2023-05-15T06:43:04.561Z,0.40
2023-05-15T06:45:32.203Z,0.30
2023-05-15T06:48:01.391Z,0.32
2023-05-15T06:50:31.882Z,1.67
2023-05-15T06:52:58.550Z,0.40
2023-05-15T06:55:25.303Z,0.65
2023-05-15T06:57:52.071Z,0.30
2023-05-15T07:00:18.678Z,0.65
2023-05-15T07:02:45.227Z,0.63
2023-05-15T07:05:11.956Z,0.20
2023-05-15T07:07:38.518Z,0.35
2023-05-15T07:10:05.472Z,1.20
2023-05-15T07:12:33.218Z,0.40
2023-05-15T07:14:59.762Z,0.60
2023-05-15T07:17:26.407Z,0.68
2023-05-15T07:19:52.964Z,0.52
2023-05-15T07:22:19.816Z,1.02
2023-05-15T07:24:46.330Z,0.65
2023-05-15T07:27:12.810Z,1.25
2023-05-15T07:29:39.271Z,0.35
2023-05-15T07:32:05.970Z,1.10
2023-05-15T07:34:32.473Z,0.88
2023-05-15T07:36:58.968Z,2.63
2023-05-15T07:39:25.483Z,0.47
2023-05-15T07:41:52.045Z,0.55
2023-05-15T07:44:18.573Z,0.28
2023-05-15T07:46:45.901Z,0.80
2023-05-15T07:49:12.568Z,0.98
2023-05-15T07:51:39.047Z,0.70
2023-05-15T07:54:05.863Z,0.82
2023-05-15T07:56:32.717Z,0.50
2023-05-15T07:58:59.226Z,0.93
2023-05-15T08:01:25.712Z,1.10
2023-05-15T08:03:52.279Z,1.50
2023-05-15T08:06:18.871Z,0.77
2023-05-15T08:08:45.361Z,0.93
2023-05-15T08:11:11.902Z,0.50
2023-05-15T08:13:38.380Z,0.40
2023-05-15T08:16:05.641Z,0.50
2023-05-15T08:18:32.285Z,0.25
2023-05-15T08:20:58.880Z,0.30
2023-05-15T08:23:25.473Z,0.40
2023-05-15T08:25:51.965Z,0.63
2023-05-15T08:28:18.456Z,1.48
2023-05-15T08:30:44.950Z,0.90
2023-05-15T08:33:11.470Z,0.68
2023-05-15T08:35:38.004Z,0.25
2023-05-15T08:38:04.534Z,1.65
2023-05-15T08:40:39.073Z,0.40
2023-05-15T08:43:09.431Z,0.30
2023-05-15T08:45:35.910Z,0.30
2023-05-15T08:48:07.777Z,0.55
2023-05-15T08:50:36.440Z,0.52
2023-05-15T08:53:03.715Z,0.52
2023-05-15T08:55:30.311Z,0.30
2023-05-15T08:57:57.062Z,0.60
2023-05-15T09:00:23.551Z,0.40
2023-05-15T09:02:50.914Z,1.10
2023-05-15T09:05:17.513Z,0.60
2023-05-15T09:07:45.173Z,1.63
2023-05-15T09:10:13.153Z,0.30
2023-05-15T09:12:44.569Z,0.40
2023-05-15T09:17:38.251Z,0.50
2023-05-15T09:20:08.512Z,0.43
2023-05-15T09:22:35.816Z,0.55
2023-05-15T09:25:03.496Z,0.30
2023-05-15T09:27:30.495Z,0.43
2023-05-15T09:30:08.009Z,1.35
2023-05-15T09:32:34.532Z,1.52
2023-05-15T09:35:01.061Z,0.50
2023-05-15T09:37:29.033Z,0.95
2023-05-15T09:39:55.916Z,0.77
2023-05-15T09:42:24.656Z,1.60
2023-05-15T09:44:51.315Z,0.85
2023-05-15T09:47:18.242Z,0.30
2023-05-15T09:49:45.603Z,1.25
2023-05-15T09:52:12.122Z,0.57
2023-05-15T09:54:38.635Z,0.70
2023-05-15T09:57:09.175Z,0.60
2023-05-15T09:59:35.785Z,0.60
2023-05-15T10:02:02.401Z,0.40
2023-05-15T10:04:35.139Z,1.05
2023-05-15T10:07:01.649Z,0.93
2023-05-15T10:09:31.214Z,1.17
2023-05-15T10:11:58.788Z,0.80
2023-05-15T10:14:26.714Z,1.92
2023-05-15T10:16:54.030Z,0.75
2023-05-15T10:19:22.654Z,0.63
2023-05-15T10:21:49.988Z,0.40
2023-05-15T10:24:16.627Z,0.43
2023-05-15T10:26:43.413Z,0.50
2023-05-15T10:29:10.912Z,0.28
2023-05-15T10:31:37.767Z,0.30
2023-05-15T10:34:05.543Z,0.47
2023-05-15T10:36:33.119Z,2.13
2023-05-15T10:39:04.540Z,0.52
2023-05-15T10:41:32.731Z,1.50
2023-05-15T10:44:00.061Z,0.30
2023-05-15T10:46:27.668Z,0.30
2023-05-15T10:48:54.525Z,0.35
2023-05-15T10:51:25.331Z,0.55
2023-05-15T10:53:52.075Z,1.38
2023-05-15T10:56:18.615Z,1.42
2023-05-15T10:58:48.672Z,0.43
2023-05-15T11:01:32.158Z,0.82
2023-05-15T11:04:18.278Z,0.60
2023-05-15T11:06:45.902Z,1.02
2023-05-15T11:09:21.436Z,0.55
2023-05-15T11:12:01.609Z,0.57
2023-05-15T11:14:29.352Z,1.25
2023-05-15T11:16:57.603Z,0.60
2023-05-15T11:19:36.351Z,0.77
2023-05-15T11:22:08.854Z,0.30
2023-05-15T11:24:51.327Z,0.70
2023-05-15T11:27:19.595Z,0.40
2023-05-15T11:30:05.000Z,1.63
2023-05-15T11:32:32.490Z,0.35
2023-05-15T11:35:02.454Z,2.15
2023-05-15T11:37:29.741Z,0.38
2023-05-15T11:39:56.368Z,1.40
2023-05-15T11:42:22.935Z,0.30
2023-05-15T11:44:49.471Z,0.43
2023-05-15T11:47:16.193Z,0.30
2023-05-15T11:49:42.854Z,0.30
2023-05-15T11:52:09.392Z,0.60
2023-05-15T11:54:36.792Z,0.63
2023-05-15T11:57:03.304Z,1.13
2023-05-15T11:59:32.125Z,0.60
2023-05-15T12:01:59.584Z,1.15
2023-05-15T12:04:26.283Z,1.30
2023-05-15T12:06:52.965Z,0.85
2023-05-15T12:09:19.805Z,1.08
2023-05-15T12:11:52.988Z,1.10
2023-05-15T12:14:26.565Z,0.47
2023-05-15T12:16:53.516Z,0.45
2023-05-15T12:19:23.963Z,0.30
2023-05-15T12:21:51.075Z,0.33
2023-05-15T12:24:20.129Z,0.30
2023-05-15T12:26:47.033Z,0.28
2023-05-15T12:29:13.964Z,0.50
2023-05-15T12:31:40.746Z,0.43
2023-05-15T12:34:07.372Z,0.10
2023-05-15T12:36:34.235Z,0.20
2023-05-15T12:39:05.999Z,0.43
2023-05-15T12:41:32.468Z,0.50
2023-05-15T12:43:59.208Z,0.88
2023-05-15T12:46:29.470Z,0.20
2023-05-15T12:48:58.381Z,0.70
2023-05-15T12:51:24.927Z,1.08
2023-05-15T12:53:54.580Z,0.25
2023-05-15T12:56:21.571Z,1.65
2023-05-15T12:58:48.113Z,1.15
2023-05-15T13:01:15.319Z,0.10
2023-05-15T13:03:42.852Z,0.77
2023-05-15T13:06:10.106Z,0.73
2023-05-15T13:08:42.885Z,0.30
2023-05-15T13:11:14.173Z,0.22
2023-05-15T13:13:44.810Z,0.10
2023-05-15T13:16:20.370Z,0.50
2023-05-15T13:18:46.970Z,0.40
2023-05-15T13:21:13.910Z,0.60
2023-05-15T13:23:40.407Z,0.50
2023-05-15T13:26:06.889Z,0.40
2023-05-15T13:28:34.001Z,0.75
2023-05-15T13:31:01.151Z,0.73
2023-05-15T13:33:27.637Z,0.38
2023-05-15T13:35:54.275Z,0.57
2023-05-15T13:38:21.054Z,0.30
2023-05-15T13:40:47.610Z,1.33
2023-05-15T13:43:14.061Z,0.40
2023-05-15T13:45:41.153Z,0.20
2023-05-15T13:48:07.890Z,0.10
2023-05-15T13:50:34.516Z,1.70
2023-05-15T13:53:01.059Z,1.25
2023-05-15T13:55:27.687Z,0.10
2023-05-15T13:57:54.249Z,0.17
2023-05-15T14:00:21.154Z,0.10
2023-05-15T14:02:47.721Z,0.63
2023-05-15T14:05:15.214Z,0.20
2023-05-15T14:07:42.213Z,0.30
2023-05-15T14:10:09.235Z,0.38
2023-05-15T14:12:36.382Z,0.20
2023-05-15T14:15:02.992Z,0.45
2023-05-15T14:17:29.597Z,1.38
2023-05-15T14:19:56.264Z,0.13
2023-05-15T14:22:26.621Z,0.30
2023-05-15T14:24:53.419Z,0.30
2023-05-15T14:27:19.952Z,0.17
2023-05-15T14:29:47.435Z,0.10
2023-05-15T14:32:14.051Z,0.20
2023-05-15T14:34:40.664Z,0.28
2023-05-15T14:37:07.334Z,0.10
2023-05-15T14:39:33.811Z,0.13
2023-05-15T14:42:00.362Z,0.35
2023-05-15T14:44:26.854Z,0.20
2023-05-15T14:47:06.850Z,0.43
2023-05-15T14:49:33.767Z,0.65
2023-05-15T14:52:00.254Z,0.10
2023-05-15T14:54:26.790Z,1.00
2023-05-15T14:56:54.416Z,0.10
2023-05-15T14:59:22.191Z,0.30
2023-05-15T15:01:48.829Z,0.28
2023-05-15T15:04:15.510Z,0.45
2023-05-15T15:06:42.277Z,0.45
2023-05-15T15:09:08.783Z,0.77
2023-05-15T15:11:35.322Z,0.10
2023-05-15T15:14:02.687Z,0.40
2023-05-15T15:16:29.522Z,0.38
2023-05-15T15:18:56.221Z,0.28
2023-05-15T15:21:22.773Z,0.22
2023-05-15T15:23:49.751Z,0.22
2023-05-15T15:26:16.397Z,0.30
2023-05-15T15:28:42.896Z,0.70
2023-05-15T15:31:09.735Z,0.45
2023-05-15T15:33:36.280Z,0.47
2023-05-15T15:36:02.756Z,1.40
2023-05-15T15:38:29.262Z,0.30
2023-05-15T15:40:55.763Z,2.75
2023-05-15T15:43:22.242Z,1.23
2023-05-15T15:45:48.897Z,0.30
2023-05-15T15:48:15.700Z,0.38
2023-05-15T15:50:42.261Z,0.85
2023-05-15T15:53:08.861Z,0.30
2023-05-15T15:55:35.470Z,0.20
2023-05-15T15:58:01.985Z,1.67
2023-05-15T16:00:28.483Z,0.57
2023-05-15T16:02:55.068Z,2.15
2023-05-15T16:05:21.656Z,1.05
2023-05-15T16:07:48.570Z,1.88
2023-05-15T16:10:15.192Z,1.48
2023-05-15T16:12:42.743Z,0.43
2023-05-15T16:17:39.323Z,0.30
2023-05-15T16:20:06.067Z,0.30
2023-05-15T16:22:32.566Z,0.30
2023-05-15T16:24:59.076Z,0.20
2023-05-15T16:27:25.614Z,0.68
2023-05-15T16:29:52.204Z,0.60
2023-05-15T16:32:18.939Z,0.40
2023-05-15T16:34:45.721Z,0.20
2023-05-15T16:37:12.208Z,0.30
2023-05-15T16:39:38.830Z,0.38
2023-05-15T16:42:07.919Z,0.30
2023-05-15T16:44:36.038Z,0.27
2023-05-15T16:47:09.083Z,0.63
2023-05-15T16:49:39.210Z,0.30
2023-05-15T16:52:06.482Z,0.30
2023-05-15T16:54:35.893Z,0.50
2023-05-15T16:57:02.481Z,0.60
2023-05-15T16:59:28.997Z,1.38
2023-05-15T17:01:55.593Z,0.40
2023-05-15T17:04:22.125Z,0.85
2023-05-15T17:06:48.683Z,0.43
2023-05-15T17:09:16.032Z,0.30
2023-05-15T17:11:42.534Z,1.23
2023-05-15T17:14:09.266Z,0.40
2023-05-15T17:16:36.297Z,2.83
2023-05-15T17:19:02.917Z,1.33
2023-05-15T17:21:30.918Z,1.20
2023-05-15T17:23:57.469Z,1.05
2023-05-15T17:26:24.055Z,0.45
2023-05-15T17:28:50.668Z,0.40
2023-05-15T17:31:17.173Z,0.82
2023-05-15T17:33:43.661Z,0.70
2023-05-15T17:36:10.574Z,0.38
2023-05-15T17:38:37.049Z,0.85
2023-05-15T17:41:03.601Z,1.27
2023-05-15T17:43:30.142Z,1.40
2023-05-15T17:45:57.639Z,1.50
2023-05-15T17:48:24.295Z,0.85
2023-05-15T17:50:51.138Z,0.77
2023-05-15T17:53:17.974Z,0.40
2023-05-15T17:55:44.494Z,0.40
2023-05-15T17:58:10.987Z,0.57
2023-05-15T18:00:37.463Z,0.30
2023-05-15T18:03:04.048Z,0.73
2023-05-15T18:05:30.806Z,0.40
2023-05-15T18:07:59.681Z,0.32
2023-05-15T18:10:26.217Z,0.40
2023-05-15T18:12:52.932Z,0.55
2023-05-15T18:15:19.499Z,0.73
2023-05-15T18:17:46.311Z,0.40
2023-05-15T18:20:13.163Z,0.52
2023-05-15T18:22:39.889Z,0.50
2023-05-15T18:25:06.727Z,0.30
2023-05-15T18:27:33.228Z,0.38
2023-05-15T18:29:59.746Z,0.60
2023-05-15T18:32:26.250Z,0.30
2023-05-15T18:34:52.778Z,0.20
2023-05-15T18:37:19.378Z,1.20
2023-05-15T18:39:45.956Z,0.52
2023-05-15T18:42:12.426Z,0.50
2023-05-15T18:44:38.929Z,1.20
2023-05-15T18:47:05.986Z,0.85
2023-05-15T18:49:33.131Z,0.93
2023-05-15T18:51:59.755Z,1.45
2023-05-15T18:54:26.818Z,2.90
2023-05-15T18:56:53.328Z,0.90
2023-05-15T18:59:20.106Z,0.40
2023-05-15T19:01:46.724Z,1.33
2023-05-15T19:04:13.512Z,0.73
2023-05-15T19:06:41.817Z,0.80
2023-05-15T19:09:09.694Z,0.47
2023-05-15T19:11:36.222Z,0.50
2023-05-15T19:14:02.874Z,0.50
2023-05-15T19:16:29.478Z,0.60
2023-05-15T19:18:56.072Z,1.63
2023-05-15T19:21:22.652Z,1.58
2023-05-15T19:23:50.372Z,2.30
2023-05-15T19:26:16.859Z,1.48
2023-05-15T19:28:43.517Z,0.63
2023-05-15T19:31:20.237Z,0.40
2023-05-15T19:33:54.198Z,0.43
2023-05-15T19:36:20.791Z,1.92
2023-05-15T19:38:48.004Z,0.80
2023-05-15T19:41:14.766Z,1.42
2023-05-15T19:43:41.297Z,1.05
2023-05-15T19:46:07.884Z,0.57
2023-05-15T19:48:34.418Z,0.57
2023-05-15T19:51:01.002Z,0.93
2023-05-15T19:53:27.566Z,2.28
2023-05-15T19:55:54.046Z,0.88
2023-05-15T19:58:22.325Z,1.08
2023-05-15T20:00:50.014Z,1.02
2023-05-15T20:03:16.580Z,2.25
2023-05-15T20:05:43.255Z,1.02
2023-05-15T20:08:09.713Z,0.50
2023-05-15T20:10:36.216Z,1.58
2023-05-15T20:13:03.196Z,2.53
2023-05-15T20:15:31.633Z,1.52
2023-05-15T20:17:58.304Z,1.00
2023-05-15T20:20:25.269Z,0.55
2023-05-15T20:22:52.123Z,7.32
2023-05-15T20:25:18.661Z,2.00
2023-05-15T20:27:45.115Z,1.85
2023-05-15T20:30:11.819Z,0.82
2023-05-15T20:32:38.464Z,3.30
2023-05-15T20:35:05.400Z,2.90
2023-05-15T20:37:32.137Z,1.80
2023-05-15T20:39:58.645Z,0.70
2023-05-15T20:42:27.971Z,0.40
2023-05-15T20:44:54.462Z,2.22
2023-05-15T20:47:20.910Z,1.15
2023-05-15T20:49:47.516Z,1.13
2023-05-15T20:52:14.051Z,2.25
2023-05-15T20:54:40.638Z,2.08
2023-05-15T20:57:07.155Z,1.45
2023-05-15T20:59:34.128Z,0.98
2023-05-15T21:02:00.753Z,1.05
2023-05-15T21:04:27.314Z,4.40
2023-05-15T21:06:54.740Z,2.72
2023-05-15T21:09:21.205Z,3.80
2023-05-15T21:11:47.777Z,3.67
2023-05-15T21:14:14.376Z,5.55
2023-05-15T21:16:41.221Z,8.88
2023-05-15T21:19:07.991Z,1.58
2023-05-15T21:21:35.534Z,4.95
2023-05-15T21:24:04.670Z,9.25
2023-05-15T21:26:31.233Z,34.03
2023-05-15T21:28:59.381Z,12.77
2023-05-15T21:31:27.037Z,9.30
2023-05-15T21:33:54.300Z,4.18
2023-05-15T21:36:20.987Z,2.28
2023-05-15T21:38:47.694Z,2.55
2023-05-15T21:41:14.237Z,0.90
2023-05-15T21:43:40.791Z,1.73
2023-05-15T21:46:07.327Z,1.75
2023-05-15T21:48:37.073Z,0.85
2023-05-15T21:51:03.756Z,1.08
2023-05-15T21:53:30.246Z,0.65
2023-05-15T21:56:00.623Z,1.50
2023-05-15T21:58:27.199Z,0.77
2023-05-15T22:00:53.961Z,0.30
2023-05-15T22:03:21.006Z,0.35
2023-05-15T22:05:48.071Z,0.40
2023-05-15T22:08:14.596Z,0.40
2023-05-15T22:10:41.394Z,0.30
2023-05-15T22:13:09.104Z,0.93
2023-05-15T22:15:35.773Z,1.52
2023-05-15T22:18:04.071Z,1.42
2023-05-15T22:20:30.677Z,1.05
2023-05-15T22:22:57.196Z,0.32
2023-05-15T22:25:23.770Z,0.40
2023-05-15T22:27:50.260Z,0.52
2023-05-15T22:30:16.775Z,0.32
2023-05-15T22:32:43.338Z,0.30
2023-05-15T22:35:09.959Z,0.50
2023-05-15T22:37:36.907Z,0.30
2023-05-15T22:40:04.195Z,0.40
2023-05-15T22:42:30.644Z,0.50
2023-05-15T22:44:57.982Z,0.30
2023-05-15T22:47:24.970Z,0.82
2023-05-15T22:49:51.534Z,0.32
2023-05-15T22:52:18.206Z,1.30
2023-05-15T22:54:44.745Z,0.40
2023-05-15T22:57:11.321Z,0.52
2023-05-15T22:59:38.351Z,0.73
2023-05-15T23:02:04.896Z,0.45
2023-05-15T23:04:31.421Z,0.40
2023-05-15T23:06:57.930Z,0.88
2023-05-15T23:09:24.413Z,0.30
2023-05-15T23:11:50.911Z,0.30
2023-05-15T23:14:17.662Z,0.60
2023-05-15T23:16:44.641Z,0.32
2023-05-15T23:19:11.243Z,0.40
2023-05-15T23:21:38.229Z,0.50
2023-05-15T23:24:04.824Z,0.65
2023-05-15T23:26:31.320Z,0.50
2023-05-15T23:28:57.809Z,0.52
2023-05-15T23:31:24.428Z,0.30
2023-05-15T23:33:51.687Z,0.68
2023-05-15T23:36:18.478Z,0.30
2023-05-15T23:38:45.723Z,0.30
2023-05-15T23:41:12.226Z,0.30
2023-05-15T23:43:38.717Z,0.50
2023-05-15T23:46:05.363Z,0.30
2023-05-15T23:48:33.710Z,0.45
2023-05-15T23:51:00.314Z,0.30
2023-05-15T23:53:26.817Z,0.43
2023-05-15T23:55:53.342Z,0.50
2023-05-15T23:58:19.829Z,0.60
